Terminal Aerodrome Forecast
Issued by NWS Wilmington, OH

Current Version | Previous Version | Text Only | Print | Product List | Glossary Off
Versions: 1 2 3 4 5 6 7 8 9 10 11 12 13 14 15

000
FTUS41 KILN 270800 AAA
TAFCMH
TAF AMD
KCMH 270855Z 2709/2806 VRB03KT P6SM SCT250
     FM271300 05007KT P6SM FEW050 BKN250
     FM280000 06003KT P6SM SCT250=

USA.gov is the U.S. government's official web portal to all federal, state and local government web resources and services.